sensor_id;sensor_type;location;lat;lon;timestamp;temperature;humidity
75621;DHT22;64574;48.506;-2.750;2024-02-15T00:01:21;12.50;88.20
75621;DHT22;64574;48.506;-2.750;2024-02-15T00:03:46;12.50;88.00
75621;DHT22;64574;48.506;-2.750;2024-02-15T00:06:12;12.50;87.80
75621;DHT22;64574;48.506;-2.750;2024-02-15T00:08:37;12.50;87.50
75621;DHT22;64574;48.506;-2.750;2024-02-15T00:11:03;12.50;87.30
75621;DHT22;64574;48.506;-2.750;2024-02-15T00:13:28;12.50;87.20
75621;DHT22;64574;48.506;-2.750;2024-02-15T00:15:55;12.50;87.20
75621;DHT22;64574;48.506;-2.750;2024-02-15T00:18:21;12.50;87.00
75621;DHT22;64574;48.506;-2.750;2024-02-15T00:20:46;12.50;86.80
75621;DHT22;64574;48.506;-2.750;2024-02-15T00:23:12;12.50;86.60
75621;DHT22;64574;48.506;-2.750;2024-02-15T00:25:37;12.50;86.40
75621;DHT22;64574;48.506;-2.750;2024-02-15T00:28:03;12.50;86.30
75621;DHT22;64574;48.506;-2.750;2024-02-15T00:30:29;12.50;86.30
75621;DHT22;64574;48.506;-2.750;2024-02-15T00:32:54;12.50;86.30
75621;DHT22;64574;48.506;-2.750;2024-02-15T00:35:20;12.50;86.20
75621;DHT22;64574;48.506;-2.750;2024-02-15T00:37:46;12.50;86.30
75621;DHT22;64574;48.506;-2.750;2024-02-15T00:40:11;12.50;86.30
75621;DHT22;64574;48.506;-2.750;2024-02-15T00:42:37;12.50;86.30
75621;DHT22;64574;48.506;-2.750;2024-02-15T00:45:05;12.50;86.20
75621;DHT22;64574;48.506;-2.750;2024-02-15T00:47:31;12.50;86.20
75621;DHT22;64574;48.506;-2.750;2024-02-15T00:49:56;12.50;86.30
75621;DHT22;64574;48.506;-2.750;2024-02-15T00:52:22;12.50;86.30
75621;DHT22;64574;48.506;-2.750;2024-02-15T00:54:48;12.50;86.30
75621;DHT22;64574;48.506;-2.750;2024-02-15T00:57:14;12.50;86.40
75621;DHT22;64574;48.506;-2.750;2024-02-15T00:59:39;12.50;86.30
75621;DHT22;64574;48.506;-2.750;2024-02-15T01:02:05;12.50;86.30
75621;DHT22;64574;48.506;-2.750;2024-02-15T01:04:30;12.50;86.30
75621;DHT22;64574;48.506;-2.750;2024-02-15T01:06:56;12.50;86.40
75621;DHT22;64574;48.506;-2.750;2024-02-15T01:09:22;12.50;86.50
75621;DHT22;64574;48.506;-2.750;2024-02-15T01:11:47;12.50;86.60
75621;DHT22;64574;48.506;-2.750;2024-02-15T01:14:13;12.50;86.60
75621;DHT22;64574;48.506;-2.750;2024-02-15T01:16:39;12.50;86.60
75621;DHT22;64574;48.506;-2.750;2024-02-15T01:19:04;12.50;86.60
75621;DHT22;64574;48.506;-2.750;2024-02-15T01:21:30;12.50;86.40
75621;DHT22;64574;48.506;-2.750;2024-02-15T01:23:56;12.50;86.30
75621;DHT22;64574;48.506;-2.750;2024-02-15T01:26:21;12.50;86.30
75621;DHT22;64574;48.506;-2.750;2024-02-15T01:28:47;12.50;86.20
75621;DHT22;64574;48.506;-2.750;2024-02-15T01:31:13;12.50;86.00
75621;DHT22;64574;48.506;-2.750;2024-02-15T01:33:43;12.50;85.80
75621;DHT22;64574;48.506;-2.750;2024-02-15T01:36:08;12.50;85.50
75621;DHT22;64574;48.506;-2.750;2024-02-15T01:38:38;12.50;85.40
75621;DHT22;64574;48.506;-2.750;2024-02-15T01:41:04;12.50;85.10
75621;DHT22;64574;48.506;-2.750;2024-02-15T01:43:30;12.50;85.00
75621;DHT22;64574;48.506;-2.750;2024-02-15T01:45:56;12.50;84.70
75621;DHT22;64574;48.506;-2.750;2024-02-15T01:48:24;12.50;84.50
75621;DHT22;64574;48.506;-2.750;2024-02-15T01:50:50;12.50;84.30
75621;DHT22;64574;48.506;-2.750;2024-02-15T01:53:17;12.50;84.00
75621;DHT22;64574;48.506;-2.750;2024-02-15T01:55:43;12.50;83.80
75621;DHT22;64574;48.506;-2.750;2024-02-15T01:58:09;12.50;83.60
75621;DHT22;64574;48.506;-2.750;2024-02-15T02:00:36;12.40;83.00
75621;DHT22;64574;48.506;-2.750;2024-02-15T02:03:05;12.40;82.80
75621;DHT22;64574;48.506;-2.750;2024-02-15T02:05:31;12.40;82.60
75621;DHT22;64574;48.506;-2.750;2024-02-15T02:07:57;12.40;82.40
75621;DHT22;64574;48.506;-2.750;2024-02-15T02:10:29;12.40;82.10
75621;DHT22;64574;48.506;-2.750;2024-02-15T02:12:59;12.30;82.00
75621;DHT22;64574;48.506;-2.750;2024-02-15T02:15:25;12.30;81.80
75621;DHT22;64574;48.506;-2.750;2024-02-15T02:17:51;12.30;81.60
75621;DHT22;64574;48.506;-2.750;2024-02-15T02:20:17;12.30;81.70
75621;DHT22;64574;48.506;-2.750;2024-02-15T02:22:46;12.30;81.70
75621;DHT22;64574;48.506;-2.750;2024-02-15T02:25:13;12.30;81.50
75621;DHT22;64574;48.506;-2.750;2024-02-15T02:27:39;12.30;81.80
75621;DHT22;64574;48.506;-2.750;2024-02-15T02:30:14;12.30;81.70
75621;DHT22;64574;48.506;-2.750;2024-02-15T02:32:41;12.20;81.80
75621;DHT22;64574;48.506;-2.750;2024-02-15T02:35:07;12.20;81.70
75621;DHT22;64574;48.506;-2.750;2024-02-15T02:37:33;12.20;81.70
75621;DHT22;64574;48.506;-2.750;2024-02-15T02:40:02;12.20;81.70
75621;DHT22;64574;48.506;-2.750;2024-02-15T02:42:28;12.20;81.80
75621;DHT22;64574;48.506;-2.750;2024-02-15T02:44:54;12.10;82.00
75621;DHT22;64574;48.506;-2.750;2024-02-15T02:47:19;12.20;81.90
75621;DHT22;64574;48.506;-2.750;2024-02-15T02:49:45;12.10;82.00
75621;DHT22;64574;48.506;-2.750;2024-02-15T02:52:11;12.20;82.00
75621;DHT22;64574;48.506;-2.750;2024-02-15T02:54:36;12.10;81.90
75621;DHT22;64574;48.506;-2.750;2024-02-15T02:57:02;12.10;82.00
75621;DHT22;64574;48.506;-2.750;2024-02-15T02:59:33;12.10;81.90
75621;DHT22;64574;48.506;-2.750;2024-02-15T03:01:59;12.10;82.00
75621;DHT22;64574;48.506;-2.750;2024-02-15T03:04:24;12.10;82.00
75621;DHT22;64574;48.506;-2.750;2024-02-15T03:06:50;12.10;81.90
75621;DHT22;64574;48.506;-2.750;2024-02-15T03:09:16;12.10;81.90
75621;DHT22;64574;48.506;-2.750;2024-02-15T03:11:42;12.10;81.70
75621;DHT22;64574;48.506;-2.750;2024-02-15T03:14:07;12.10;81.60
75621;DHT22;64574;48.506;-2.750;2024-02-15T03:16:33;12.10;81.60
75621;DHT22;64574;48.506;-2.750;2024-02-15T03:19:01;12.10;81.30
75621;DHT22;64574;48.506;-2.750;2024-02-15T03:21:28;12.10;81.30
75621;DHT22;64574;48.506;-2.750;2024-02-15T03:23:53;12.10;81.40
75621;DHT22;64574;48.506;-2.750;2024-02-15T03:26:28;12.10;81.30
75621;DHT22;64574;48.506;-2.750;2024-02-15T03:28:54;12.10;81.20
75621;DHT22;64574;48.506;-2.750;2024-02-15T03:31:20;12.10;81.30
75621;DHT22;64574;48.506;-2.750;2024-02-15T03:33:45;12.10;81.40
75621;DHT22;64574;48.506;-2.750;2024-02-15T03:36:11;12.10;81.40
75621;DHT22;64574;48.506;-2.750;2024-02-15T03:38:37;12.10;81.50
75621;DHT22;64574;48.506;-2.750;2024-02-15T03:41:02;12.10;81.40
75621;DHT22;64574;48.506;-2.750;2024-02-15T03:43:28;12.10;81.40
75621;DHT22;64574;48.506;-2.750;2024-02-15T03:45:54;12.10;81.40
75621;DHT22;64574;48.506;-2.750;2024-02-15T03:48:19;12.10;81.40
75621;DHT22;64574;48.506;-2.750;2024-02-15T03:50:45;12.10;81.50
75621;DHT22;64574;48.506;-2.750;2024-02-15T03:53:11;12.10;81.50
75621;DHT22;64574;48.506;-2.750;2024-02-15T03:55:36;12.10;81.50
75621;DHT22;64574;48.506;-2.750;2024-02-15T03:58:02;12.10;81.40
75621;DHT22;64574;48.506;-2.750;2024-02-15T04:00:27;12.10;81.50
75621;DHT22;64574;48.506;-2.750;2024-02-15T04:02:53;12.10;81.40
75621;DHT22;64574;48.506;-2.750;2024-02-15T04:05:18;12.10;81.30
75621;DHT22;64574;48.506;-2.750;2024-02-15T04:07:45;12.10;81.30
75621;DHT22;64574;48.506;-2.750;2024-02-15T04:10:11;12.10;81.50
75621;DHT22;64574;48.506;-2.750;2024-02-15T04:12:37;12.10;81.50
75621;DHT22;64574;48.506;-2.750;2024-02-15T04:15:04;12.10;81.50
75621;DHT22;64574;48.506;-2.750;2024-02-15T04:17:40;12.10;81.60
75621;DHT22;64574;48.506;-2.750;2024-02-15T04:20:06;12.10;81.70
75621;DHT22;64574;48.506;-2.750;2024-02-15T04:22:32;12.00;81.70
75621;DHT22;64574;48.506;-2.750;2024-02-15T04:25:02;12.00;81.80
75621;DHT22;64574;48.506;-2.750;2024-02-15T04:27:28;12.10;81.80
75621;DHT22;64574;48.506;-2.750;2024-02-15T04:29:53;12.10;81.90
75621;DHT22;64574;48.506;-2.750;2024-02-15T04:32:20;12.10;81.90
75621;DHT22;64574;48.506;-2.750;2024-02-15T04:34:46;12.00;81.90
75621;DHT22;64574;48.506;-2.750;2024-02-15T04:37:12;12.10;82.00
75621;DHT22;64574;48.506;-2.750;2024-02-15T04:39:38;12.00;82.10
75621;DHT22;64574;48.506;-2.750;2024-02-15T04:42:04;12.00;82.20
75621;DHT22;64574;48.506;-2.750;2024-02-15T04:44:32;12.10;82.20
75621;DHT22;64574;48.506;-2.750;2024-02-15T04:47:00;12.00;82.10
75621;DHT22;64574;48.506;-2.750;2024-02-15T04:49:27;12.10;82.10
75621;DHT22;64574;48.506;-2.750;2024-02-15T04:51:54;12.10;82.00
75621;DHT22;64574;48.506;-2.750;2024-02-15T04:54:20;12.10;81.80
75621;DHT22;64574;48.506;-2.750;2024-02-15T04:56:45;12.20;81.70
75621;DHT22;64574;48.506;-2.750;2024-02-15T04:59:11;12.10;81.70
75621;DHT22;64574;48.506;-2.750;2024-02-15T05:01:42;12.10;81.60
75621;DHT22;64574;48.506;-2.750;2024-02-15T05:04:09;12.10;81.60
75621;DHT22;64574;48.506;-2.750;2024-02-15T05:06:35;12.10;81.70
75621;DHT22;64574;48.506;-2.750;2024-02-15T05:09:02;12.10;81.60
75621;DHT22;64574;48.506;-2.750;2024-02-15T05:11:33;12.10;81.50
75621;DHT22;64574;48.506;-2.750;2024-02-15T05:14:01;12.10;81.40
75621;DHT22;64574;48.506;-2.750;2024-02-15T05:16:26;12.10;81.50
75621;DHT22;64574;48.506;-2.750;2024-02-15T05:18:52;12.10;81.30
75621;DHT22;64574;48.506;-2.750;2024-02-15T05:21:18;12.10;81.10
75621;DHT22;64574;48.506;-2.750;2024-02-15T05:23:45;12.10;81.10
75621;DHT22;64574;48.506;-2.750;2024-02-15T05:26:11;12.10;81.00
75621;DHT22;64574;48.506;-2.750;2024-02-15T05:28:37;12.10;81.10
75621;DHT22;64574;48.506;-2.750;2024-02-15T05:33:37;12.20;80.80
75621;DHT22;64574;48.506;-2.750;2024-02-15T05:36:04;12.10;80.90
75621;DHT22;64574;48.506;-2.750;2024-02-15T05:38:29;12.10;81.00
75621;DHT22;64574;48.506;-2.750;2024-02-15T05:40:55;12.10;81.10
75621;DHT22;64574;48.506;-2.750;2024-02-15T05:43:21;12.10;81.00
75621;DHT22;64574;48.506;-2.750;2024-02-15T05:45:47;12.10;81.10
75621;DHT22;64574;48.506;-2.750;2024-02-15T05:48:14;12.10;81.00
75621;DHT22;64574;48.506;-2.750;2024-02-15T05:50:39;12.20;80.90
75621;DHT22;64574;48.506;-2.750;2024-02-15T05:53:05;12.20;80.70
75621;DHT22;64574;48.506;-2.750;2024-02-15T05:55:33;12.10;80.80
75621;DHT22;64574;48.506;-2.750;2024-02-15T05:57:59;12.10;81.00
75621;DHT22;64574;48.506;-2.750;2024-02-15T06:00:25;12.10;81.10
75621;DHT22;64574;48.506;-2.750;2024-02-15T06:02:50;12.10;81.10
75621;DHT22;64574;48.506;-2.750;2024-02-15T06:05:17;12.00;81.30
75621;DHT22;64574;48.506;-2.750;2024-02-15T06:07:43;12.00;81.40
75621;DHT22;64574;48.506;-2.750;2024-02-15T06:10:08;12.00;81.50
75621;DHT22;64574;48.506;-2.750;2024-02-15T06:12:34;11.90;81.70
75621;DHT22;64574;48.506;-2.750;2024-02-15T06:14:59;11.90;81.90
75621;DHT22;64574;48.506;-2.750;2024-02-15T06:17:25;11.90;82.00
75621;DHT22;64574;48.506;-2.750;2024-02-15T06:19:50;11.90;82.10
75621;DHT22;64574;48.506;-2.750;2024-02-15T06:22:16;11.90;82.20
75621;DHT22;64574;48.506;-2.750;2024-02-15T06:24:41;11.90;82.20
75621;DHT22;64574;48.506;-2.750;2024-02-15T06:27:07;11.90;82.20
75621;DHT22;64574;48.506;-2.750;2024-02-15T06:29:32;11.90;82.20
75621;DHT22;64574;48.506;-2.750;2024-02-15T06:32:16;11.80;82.20
75621;DHT22;64574;48.506;-2.750;2024-02-15T06:35:01;11.80;82.20
75621;DHT22;64574;48.506;-2.750;2024-02-15T06:37:45;11.80;82.30
75621;DHT22;64574;48.506;-2.750;2024-02-15T06:40:29;11.80;82.30
75621;DHT22;64574;48.506;-2.750;2024-02-15T06:42:56;11.70;82.30
75621;DHT22;64574;48.506;-2.750;2024-02-15T06:45:21;11.80;82.30
75621;DHT22;64574;48.506;-2.750;2024-02-15T06:47:48;11.70;82.30
75621;DHT22;64574;48.506;-2.750;2024-02-15T06:50:13;11.80;82.30
75621;DHT22;64574;48.506;-2.750;2024-02-15T06:52:42;11.70;82.30
75621;DHT22;64574;48.506;-2.750;2024-02-15T06:55:08;11.70;82.40
75621;DHT22;64574;48.506;-2.750;2024-02-15T06:57:34;11.80;82.20
75621;DHT22;64574;48.506;-2.750;2024-02-15T07:00:02;11.80;82.40
75621;DHT22;64574;48.506;-2.750;2024-02-15T07:02:28;11.80;82.20
75621;DHT22;64574;48.506;-2.750;2024-02-15T07:04:54;11.70;82.20
75621;DHT22;64574;48.506;-2.750;2024-02-15T07:07:19;11.70;82.30
75621;DHT22;64574;48.506;-2.750;2024-02-15T07:09:46;11.70;82.40
75621;DHT22;64574;48.506;-2.750;2024-02-15T07:12:12;11.70;82.50
75621;DHT22;64574;48.506;-2.750;2024-02-15T07:14:37;11.70;82.60
75621;DHT22;64574;48.506;-2.750;2024-02-15T07:17:03;11.70;82.60
75621;DHT22;64574;48.506;-2.750;2024-02-15T07:19:29;11.70;82.80
75621;DHT22;64574;48.506;-2.750;2024-02-15T07:21:58;11.70;82.70
75621;DHT22;64574;48.506;-2.750;2024-02-15T07:24:24;11.70;82.70
75621;DHT22;64574;48.506;-2.750;2024-02-15T07:26:52;11.60;82.70
75621;DHT22;64574;48.506;-2.750;2024-02-15T07:29:23;11.70;82.60
75621;DHT22;64574;48.506;-2.750;2024-02-15T07:31:49;11.70;82.70
75621;DHT22;64574;48.506;-2.750;2024-02-15T07:34:15;11.70;82.70
75621;DHT22;64574;48.506;-2.750;2024-02-15T07:36:41;11.70;82.70
75621;DHT22;64574;48.506;-2.750;2024-02-15T07:39:07;11.70;82.60
75621;DHT22;64574;48.506;-2.750;2024-02-15T07:41:40;11.70;82.50
75621;DHT22;64574;48.506;-2.750;2024-02-15T07:44:05;11.70;82.50
75621;DHT22;64574;48.506;-2.750;2024-02-15T07:46:31;11.70;82.50
75621;DHT22;64574;48.506;-2.750;2024-02-15T07:48:58;11.70;82.50
75621;DHT22;64574;48.506;-2.750;2024-02-15T07:51:23;11.70;82.50
75621;DHT22;64574;48.506;-2.750;2024-02-15T07:53:49;11.70;82.50
75621;DHT22;64574;48.506;-2.750;2024-02-15T07:56:15;11.70;82.40
75621;DHT22;64574;48.506;-2.750;2024-02-15T07:58:41;11.70;82.40
75621;DHT22;64574;48.506;-2.750;2024-02-15T08:01:07;11.70;82.30
75621;DHT22;64574;48.506;-2.750;2024-02-15T08:03:34;11.70;82.30
75621;DHT22;64574;48.506;-2.750;2024-02-15T08:06:01;11.70;82.00
75621;DHT22;64574;48.506;-2.750;2024-02-15T08:08:26;11.80;81.70
75621;DHT22;64574;48.506;-2.750;2024-02-15T08:10:52;11.80;81.70
75621;DHT22;64574;48.506;-2.750;2024-02-15T08:13:17;11.90;81.50
75621;DHT22;64574;48.506;-2.750;2024-02-15T08:15:43;11.90;81.20
75621;DHT22;64574;48.506;-2.750;2024-02-15T08:18:10;11.90;81.10
75621;DHT22;64574;48.506;-2.750;2024-02-15T08:20:38;11.90;81.00
75621;DHT22;64574;48.506;-2.750;2024-02-15T08:23:05;11.90;81.00
75621;DHT22;64574;48.506;-2.750;2024-02-15T08:25:31;11.90;80.60
75621;DHT22;64574;48.506;-2.750;2024-02-15T08:27:56;11.90;80.10
75621;DHT22;64574;48.506;-2.750;2024-02-15T08:30:22;12.00;80.00
75621;DHT22;64574;48.506;-2.750;2024-02-15T08:32:47;12.00;79.90
75621;DHT22;64574;48.506;-2.750;2024-02-15T08:35:14;12.00;79.70
75621;DHT22;64574;48.506;-2.750;2024-02-15T08:37:40;12.00;79.70
75621;DHT22;64574;48.506;-2.750;2024-02-15T08:40:07;12.10;79.60
75621;DHT22;64574;48.506;-2.750;2024-02-15T08:42:39;12.00;79.40
75621;DHT22;64574;48.506;-2.750;2024-02-15T08:45:05;12.10;79.50
75621;DHT22;64574;48.506;-2.750;2024-02-15T08:47:37;12.10;79.40
75621;DHT22;64574;48.506;-2.750;2024-02-15T08:50:03;12.10;79.30
75621;DHT22;64574;48.506;-2.750;2024-02-15T08:52:29;12.20;79.30
75621;DHT22;64574;48.506;-2.750;2024-02-15T08:54:54;12.20;79.20
75621;DHT22;64574;48.506;-2.750;2024-02-15T08:57:22;12.30;79.10
75621;DHT22;64574;48.506;-2.750;2024-02-15T08:59:48;12.30;79.10
75621;DHT22;64574;48.506;-2.750;2024-02-15T09:02:13;12.30;78.90
75621;DHT22;64574;48.506;-2.750;2024-02-15T09:04:39;12.40;78.90
75621;DHT22;64574;48.506;-2.750;2024-02-15T09:07:06;12.40;78.90
75621;DHT22;64574;48.506;-2.750;2024-02-15T09:09:32;12.50;78.70
75621;DHT22;64574;48.506;-2.750;2024-02-15T09:12:01;12.50;78.70
75621;DHT22;64574;48.506;-2.750;2024-02-15T09:14:26;12.50;78.80
75621;DHT22;64574;48.506;-2.750;2024-02-15T09:16:52;12.50;78.70
75621;DHT22;64574;48.506;-2.750;2024-02-15T09:19:17;12.50;78.90
75621;DHT22;64574;48.506;-2.750;2024-02-15T09:21:44;12.50;79.00
75621;DHT22;64574;48.506;-2.750;2024-02-15T09:24:10;12.50;79.00
75621;DHT22;64574;48.506;-2.750;2024-02-15T09:26:35;12.50;78.90
75621;DHT22;64574;48.506;-2.750;2024-02-15T09:29:01;12.50;78.70
75621;DHT22;64574;48.506;-2.750;2024-02-15T09:31:27;12.50;78.80
75621;DHT22;64574;48.506;-2.750;2024-02-15T09:33:52;12.50;79.10
75621;DHT22;64574;48.506;-2.750;2024-02-15T09:36:18;12.50;79.10
75621;DHT22;64574;48.506;-2.750;2024-02-15T09:38:43;12.50;79.20
75621;DHT22;64574;48.506;-2.750;2024-02-15T09:41:09;12.50;79.00
75621;DHT22;64574;48.506;-2.750;2024-02-15T09:43:35;12.60;79.00
75621;DHT22;64574;48.506;-2.750;2024-02-15T09:46:00;12.70;79.20
75621;DHT22;64574;48.506;-2.750;2024-02-15T09:48:29;12.70;79.10
75621;DHT22;64574;48.506;-2.750;2024-02-15T09:50:56;12.70;79.20
75621;DHT22;64574;48.506;-2.750;2024-02-15T09:53:22;12.70;79.40
75621;DHT22;64574;48.506;-2.750;2024-02-15T09:55:52;12.70;79.50
75621;DHT22;64574;48.506;-2.750;2024-02-15T09:58:19;12.70;79.50
75621;DHT22;64574;48.506;-2.750;2024-02-15T10:00:44;12.70;79.70
75621;DHT22;64574;48.506;-2.750;2024-02-15T10:03:11;12.60;79.70
75621;DHT22;64574;48.506;-2.750;2024-02-15T10:05:39;12.60;79.70
75621;DHT22;64574;48.506;-2.750;2024-02-15T10:08:05;12.70;79.70
75621;DHT22;64574;48.506;-2.750;2024-02-15T10:10:32;12.70;79.80
75621;DHT22;64574;48.506;-2.750;2024-02-15T10:12:59;12.70;79.80
75621;DHT22;64574;48.506;-2.750;2024-02-15T10:17:58;12.80;79.70
75621;DHT22;64574;48.506;-2.750;2024-02-15T10:20:26;12.70;79.60
75621;DHT22;64574;48.506;-2.750;2024-02-15T10:22:52;12.80;79.70
75621;DHT22;64574;48.506;-2.750;2024-02-15T10:25:20;12.80;79.60
75621;DHT22;64574;48.506;-2.750;2024-02-15T10:27:45;12.80;79.80
75621;DHT22;64574;48.506;-2.750;2024-02-15T10:30:14;12.80;79.70
75621;DHT22;64574;48.506;-2.750;2024-02-15T10:32:41;12.90;79.90
75621;DHT22;64574;48.506;-2.750;2024-02-15T10:35:06;12.90;79.90
75621;DHT22;64574;48.506;-2.750;2024-02-15T10:37:32;12.90;79.80
75621;DHT22;64574;48.506;-2.750;2024-02-15T10:40:04;12.90;79.90
75621;DHT22;64574;48.506;-2.750;2024-02-15T10:42:33;13.00;80.10
75621;DHT22;64574;48.506;-2.750;2024-02-15T10:45:01;13.00;80.20
75621;DHT22;64574;48.506;-2.750;2024-02-15T10:47:30;13.10;80.40
75621;DHT22;64574;48.506;-2.750;2024-02-15T10:49:55;13.10;80.30
75621;DHT22;64574;48.506;-2.750;2024-02-15T10:52:23;13.10;80.30
75621;DHT22;64574;48.506;-2.750;2024-02-15T10:54:54;13.20;80.50
75621;DHT22;64574;48.506;-2.750;2024-02-15T10:57:22;13.30;80.50
75621;DHT22;64574;48.506;-2.750;2024-02-15T10:59:57;13.30;80.50
75621;DHT22;64574;48.506;-2.750;2024-02-15T11:04:51;13.30;80.80
75621;DHT22;64574;48.506;-2.750;2024-02-15T11:07:19;13.30;80.80
75621;DHT22;64574;48.506;-2.750;2024-02-15T11:09:47;13.40;80.70
75621;DHT22;64574;48.506;-2.750;2024-02-15T11:12:12;13.50;80.40
75621;DHT22;64574;48.506;-2.750;2024-02-15T11:14:39;13.60;80.30
75621;DHT22;64574;48.506;-2.750;2024-02-15T11:17:10;13.70;80.50
75621;DHT22;64574;48.506;-2.750;2024-02-15T11:22:14;13.60;80.10
75621;DHT22;64574;48.506;-2.750;2024-02-15T11:24:47;13.60;80.30
75621;DHT22;64574;48.506;-2.750;2024-02-15T11:27:23;13.50;80.60
75621;DHT22;64574;48.506;-2.750;2024-02-15T11:29:50;13.50;80.70
75621;DHT22;64574;48.506;-2.750;2024-02-15T11:35:04;13.50;81.10
75621;DHT22;64574;48.506;-2.750;2024-02-15T11:37:53;13.40;81.20
75621;DHT22;64574;48.506;-2.750;2024-02-15T11:40:26;13.50;81.10
75621;DHT22;64574;48.506;-2.750;2024-02-15T11:42:53;13.50;80.90
75621;DHT22;64574;48.506;-2.750;2024-02-15T11:45:18;13.50;80.90
75621;DHT22;64574;48.506;-2.750;2024-02-15T11:47:47;13.50;81.00
75621;DHT22;64574;48.506;-2.750;2024-02-15T11:50:14;13.50;81.10
75621;DHT22;64574;48.506;-2.750;2024-02-15T11:52:45;13.50;81.10
75621;DHT22;64574;48.506;-2.750;2024-02-15T11:55:17;13.50;81.10
75621;DHT22;64574;48.506;-2.750;2024-02-15T11:58:17;13.40;81.20
75621;DHT22;64574;48.506;-2.750;2024-02-15T12:00:37;13.40;81.30
75621;DHT22;64574;48.506;-2.750;2024-02-15T12:03:22;13.40;81.50
75621;DHT22;64574;48.506;-2.750;2024-02-15T12:06:06;13.50;81.50
75621;DHT22;64574;48.506;-2.750;2024-02-15T12:08:51;13.50;81.50
75621;DHT22;64574;48.506;-2.750;2024-02-15T12:11:36;13.50;81.70
75621;DHT22;64574;48.506;-2.750;2024-02-15T12:14:20;13.50;81.80
75621;DHT22;64574;48.506;-2.750;2024-02-15T12:17:05;13.50;81.80
75621;DHT22;64574;48.506;-2.750;2024-02-15T12:19:50;13.50;81.80
75621;DHT22;64574;48.506;-2.750;2024-02-15T12:22:20;13.50;81.90
75621;DHT22;64574;48.506;-2.750;2024-02-15T12:24:52;13.50;81.90
75621;DHT22;64574;48.506;-2.750;2024-02-15T12:27:18;13.50;82.00
75621;DHT22;64574;48.506;-2.750;2024-02-15T12:29:45;13.50;82.10
75621;DHT22;64574;48.506;-2.750;2024-02-15T12:32:19;13.50;82.30
75621;DHT22;64574;48.506;-2.750;2024-02-15T12:34:45;13.50;82.40
75621;DHT22;64574;48.506;-2.750;2024-02-15T12:37:11;13.60;82.40
75621;DHT22;64574;48.506;-2.750;2024-02-15T12:39:36;13.70;82.30
75621;DHT22;64574;48.506;-2.750;2024-02-15T12:42:02;13.70;82.20
75621;DHT22;64574;48.506;-2.750;2024-02-15T12:44:28;13.80;82.20
75621;DHT22;64574;48.506;-2.750;2024-02-15T12:46:57;13.90;82.00
75621;DHT22;64574;48.506;-2.750;2024-02-15T12:51:51;13.70;82.20
75621;DHT22;64574;48.506;-2.750;2024-02-15T12:54:22;13.70;82.40
75621;DHT22;64574;48.506;-2.750;2024-02-15T12:56:48;13.70;82.30
75621;DHT22;64574;48.506;-2.750;2024-02-15T12:59:14;13.60;82.40
75621;DHT22;64574;48.506;-2.750;2024-02-15T13:01:39;13.60;82.50
75621;DHT22;64574;48.506;-2.750;2024-02-15T13:04:05;13.50;82.60
75621;DHT22;64574;48.506;-2.750;2024-02-15T13:06:32;13.50;82.60
75621;DHT22;64574;48.506;-2.750;2024-02-15T13:09:01;13.50;82.70
75621;DHT22;64574;48.506;-2.750;2024-02-15T13:11:27;13.50;82.80
75621;DHT22;64574;48.506;-2.750;2024-02-15T13:13:53;13.40;82.80
75621;DHT22;64574;48.506;-2.750;2024-02-15T13:16:20;13.50;82.90
75621;DHT22;64574;48.506;-2.750;2024-02-15T13:18:49;13.50;83.00
75621;DHT22;64574;48.506;-2.750;2024-02-15T13:21:14;13.50;83.00
75621;DHT22;64574;48.506;-2.750;2024-02-15T13:23:40;13.50;83.00
75621;DHT22;64574;48.506;-2.750;2024-02-15T13:26:06;13.50;83.00
75621;DHT22;64574;48.506;-2.750;2024-02-15T13:28:33;13.50;83.00
75621;DHT22;64574;48.506;-2.750;2024-02-15T13:30:59;13.50;82.80
75621;DHT22;64574;48.506;-2.750;2024-02-15T13:33:25;13.50;83.10
75621;DHT22;64574;48.506;-2.750;2024-02-15T13:35:54;13.50;83.20
75621;DHT22;64574;48.506;-2.750;2024-02-15T13:38:20;13.60;83.10
75621;DHT22;64574;48.506;-2.750;2024-02-15T13:40:48;13.60;83.00
75621;DHT22;64574;48.506;-2.750;2024-02-15T13:43:21;13.60;83.00
75621;DHT22;64574;48.506;-2.750;2024-02-15T13:45:47;13.70;82.90
75621;DHT22;64574;48.506;-2.750;2024-02-15T13:48:14;13.70;82.90
75621;DHT22;64574;48.506;-2.750;2024-02-15T13:50:40;13.60;82.90
75621;DHT22;64574;48.506;-2.750;2024-02-15T13:53:06;13.70;83.10
75621;DHT22;64574;48.506;-2.750;2024-02-15T13:55:35;13.70;83.10
75621;DHT22;64574;48.506;-2.750;2024-02-15T13:58:03;13.90;82.90
75621;DHT22;64574;48.506;-2.750;2024-02-15T14:00:29;13.90;82.60
75621;DHT22;64574;48.506;-2.750;2024-02-15T14:03:02;13.90;82.50
75621;DHT22;64574;48.506;-2.750;2024-02-15T14:05:31;13.90;82.50
75621;DHT22;64574;48.506;-2.750;2024-02-15T14:08:00;13.90;82.60
75621;DHT22;64574;48.506;-2.750;2024-02-15T14:10:29;13.90;82.60
75621;DHT22;64574;48.506;-2.750;2024-02-15T14:12:56;14.00;82.70
75621;DHT22;64574;48.506;-2.750;2024-02-15T14:15:24;14.00;82.70
75621;DHT22;64574;48.506;-2.750;2024-02-15T14:17:50;14.10;82.50
75621;DHT22;64574;48.506;-2.750;2024-02-15T14:20:16;14.10;82.40
75621;DHT22;64574;48.506;-2.750;2024-02-15T14:22:45;14.10;82.50
75621;DHT22;64574;48.506;-2.750;2024-02-15T14:25:11;14.10;82.60
75621;DHT22;64574;48.506;-2.750;2024-02-15T14:27:39;14.20;82.80
75621;DHT22;64574;48.506;-2.750;2024-02-15T14:30:06;14.20;82.60
75621;DHT22;64574;48.506;-2.750;2024-02-15T14:32:51;14.20;82.60
75621;DHT22;64574;48.506;-2.750;2024-02-15T14:35:26;14.20;82.50
75621;DHT22;64574;48.506;-2.750;2024-02-15T14:37:52;14.20;82.50
75621;DHT22;64574;48.506;-2.750;2024-02-15T14:40:18;14.10;82.70
75621;DHT22;64574;48.506;-2.750;2024-02-15T14:42:44;14.20;82.80
75621;DHT22;64574;48.506;-2.750;2024-02-15T14:45:11;14.20;82.90
75621;DHT22;64574;48.506;-2.750;2024-02-15T14:47:37;14.20;82.80
75621;DHT22;64574;48.506;-2.750;2024-02-15T14:50:04;14.20;82.70
75621;DHT22;64574;48.506;-2.750;2024-02-15T14:52:36;14.30;82.90
75621;DHT22;64574;48.506;-2.750;2024-02-15T14:55:03;14.30;82.70
75621;DHT22;64574;48.506;-2.750;2024-02-15T14:57:34;14.30;82.80
75621;DHT22;64574;48.506;-2.750;2024-02-15T15:00:02;14.30;82.70
75621;DHT22;64574;48.506;-2.750;2024-02-15T15:02:30;14.30;82.80
75621;DHT22;64574;48.506;-2.750;2024-02-15T15:04:56;14.30;82.70
75621;DHT22;64574;48.506;-2.750;2024-02-15T15:07:41;14.20;83.00
75621;DHT22;64574;48.506;-2.750;2024-02-15T15:10:25;14.10;83.20
75621;DHT22;64574;48.506;-2.750;2024-02-15T15:13:09;14.10;83.30
75621;DHT22;64574;48.506;-2.750;2024-02-15T15:15:36;14.10;83.50
75621;DHT22;64574;48.506;-2.750;2024-02-15T15:18:03;14.10;83.50
75621;DHT22;64574;48.506;-2.750;2024-02-15T15:20:30;14.10;83.60
75621;DHT22;64574;48.506;-2.750;2024-02-15T15:22:58;14.10;83.60
75621;DHT22;64574;48.506;-2.750;2024-02-15T15:25:25;14.10;83.70
75621;DHT22;64574;48.506;-2.750;2024-02-15T15:27:53;14.10;83.90
75621;DHT22;64574;48.506;-2.750;2024-02-15T15:30:19;14.20;83.60
75621;DHT22;64574;48.506;-2.750;2024-02-15T15:32:46;14.30;83.30